Time;durP1;ratioP1;P1;durP2;ratioP2;P2;SDS_P1;SDS_P2;PMS_P1;PMS_P2;Temp;Humidity;BMP_temperature;BMP_pressure;BME280_temperature;BME280_humidity;BME280_pressure;Samples;Min_cycle;Max_cycle;Signal;HPM_P1;HPM_P2
2021/01/06 00:00:47;;;;;;;6.07;2.80;;;;;;;1.08;80.56;101634.66;5011558;28;20100;-65
2021/01/06 00:03:18;;;;;;;2.92;2.10;;;;;;;1.07;80.19;101628.53;5011728;28;20045;-65
2021/01/06 00:05:46;;;;;;;5.75;3.05;;;;;;;1.02;80.61;101625.31;5012478;28;20034;-65
2021/01/06 00:08:11;;;;;;;6.07;2.53;;;;;;;1.02;80.13;101627.94;5012475;28;20044;-65
2021/01/06 00:10:37;;;;;;;4.88;1.88;;;;;;;0.94;80.04;101630.97;5012626;28;20379;-65
2021/01/06 00:13:03;;;;;;;3.92;1.80;;;;;;;0.98;80.28;101626.38;5011407;28;20042;-65
2021/01/06 00:15:33;;;;;;;7.10;2.72;;;;;;;0.99;80.34;101620.22;5011455;28;20042;-65
2021/01/06 00:17:58;;;;;;;3.78;2.10;;;;;;;0.97;80.08;101624.69;4994789;28;20446;-65
2021/01/06 00:20:26;;;;;;;4.95;2.65;;;;;;;0.97;80.52;101619.44;5012293;28;20034;-65
2021/01/06 00:22:52;;;;;;;5.60;2.05;;;;;;;0.93;80.74;101620.53;5012311;28;20040;-65
2021/01/06 00:25:24;;;;;;;6.53;2.67;;;;;;;0.96;80.17;101613.34;5012424;28;20033;-65
2021/01/06 00:27:50;;;;;;;4.82;2.40;;;;;;;0.99;80.10;101614.97;4994454;28;20125;-65
2021/01/06 00:30:23;;;;;;;3.75;2.00;;;;;;;1.05;79.64;101619.88;5011461;28;20121;-65
2021/01/06 00:32:49;;;;;;;5.70;2.42;;;;;;;1.08;79.86;101617.13;5012125;28;20467;-65
2021/01/06 00:35:14;;;;;;;6.88;3.13;;;;;;;1.03;79.41;101608.59;5011245;28;20030;-65
2021/01/06 00:37:39;;;;;;;3.90;2.30;;;;;;;1.02;79.75;101609.53;4994540;28;20048;-65
2021/01/06 00:40:05;;;;;;;5.07;2.47;;;;;;;1.01;79.66;101613.94;4994723;28;20042;-65
2021/01/06 00:42:30;;;;;;;5.32;2.53;;;;;;;1.02;79.80;101609.53;5010969;28;20038;-65
2021/01/06 00:44:56;;;;;;;4.07;2.20;;;;;;;1.05;79.48;101614.63;5011108;28;20859;-65
2021/01/06 00:47:21;;;;;;;4.03;2.43;;;;;;;1.06;79.62;101605.81;5010750;28;20300;-65
2021/01/06 00:49:46;;;;;;;3.57;2.20;;;;;;;1.06;79.46;101603.19;5010964;28;20104;-65
2021/01/06 00:52:13;;;;;;;4.67;2.37;;;;;;;1.02;80.04;101609.53;5011801;28;20037;-65
2021/01/06 00:54:39;;;;;;;6.22;3.65;;;;;;;0.99;79.59;101605.28;4994618;28;20417;-65
2021/01/06 00:57:05;;;;;;;7.50;3.10;;;;;;;0.99;79.75;101604.44;5010261;28;20037;-65
2021/01/06 00:59:32;;;;;;;9.23;3.50;;;;;;;1.01;79.76;101592.91;5010900;28;20080;-65
2021/01/06 01:01:57;;;;;;;7.15;2.90;;;;;;;1.04;79.22;101595.38;5010879;28;20068;-65
2021/01/06 01:04:23;;;;;;;4.60;2.60;;;;;;;0.99;79.64;101596.56;5010536;28;20061;-65
2021/01/06 01:06:50;;;;;;;5.90;2.70;;;;;;;0.97;79.92;101596.63;5010497;28;20060;-65
2021/01/06 01:09:16;;;;;;;7.32;2.22;;;;;;;0.96;79.89;101594.94;5011466;28;20195;-65
2021/01/06 01:11:41;;;;;;;4.27;2.40;;;;;;;0.96;79.47;101588.81;5011728;28;20049;-65
2021/01/06 01:14:06;;;;;;;5.63;2.70;;;;;;;0.99;79.33;101588.66;5011608;28;20041;-65
2021/01/06 01:16:32;;;;;;;5.33;2.30;;;;;;;0.97;79.69;101580.00;5011317;28;20034;-65
2021/01/06 01:18:57;;;;;;;6.23;2.93;;;;;;;1.00;79.98;101592.97;5010549;28;20440;-65
2021/01/06 01:21:22;;;;;;;6.37;2.83;;;;;;;0.98;80.05;101592.22;5011315;28;20371;-65
2021/01/06 01:23:48;;;;;;;4.43;2.90;;;;;;;0.98;79.92;101586.94;5011268;28;20045;-65
2021/01/06 01:26:13;;;;;;;4.10;2.40;;;;;;;0.96;79.84;101594.06;5011052;28;20042;-65
2021/01/06 01:28:39;;;;;;;8.93;3.23;;;;;;;0.95;80.02;101581.84;5010480;28;20025;-65
2021/01/06 01:31:05;;;;;;;6.65;2.83;;;;;;;0.99;79.67;101578.16;5010945;28;20048;-66
2021/01/06 01:33:30;;;;;;;6.85;2.78;;;;;;;0.99;79.85;101572.88;5011312;28;20038;-65
2021/01/06 01:35:57;;;;;;;13.73;3.33;;;;;;;1.04;80.00;101570.84;5011064;28;20041;-65
2021/01/06 01:38:25;;;;;;;6.50;3.75;;;;;;;0.99;79.71;101578.16;5010158;28;20038;-65
2021/01/06 01:41:21;;;;;;;6.63;2.85;;;;;;;1.02;79.54;101573.56;5011251;28;20053;-65
2021/01/06 01:43:46;;;;;;;9.52;2.88;;;;;;;0.96;79.46;101562.50;5010893;28;20061;-65
2021/01/06 01:46:35;;;;;;;4.13;3.07;;;;;;;0.94;80.06;101559.97;5011073;28;20042;-65
2021/01/06 01:49:04;;;;;;;6.15;3.05;;;;;;;1.02;80.17;101568.31;5010026;28;20038;-65
2021/01/06 01:51:40;;;;;;;10.25;2.83;;;;;;;0.99;80.16;101557.94;5011061;28;20125;-65
2021/01/06 01:54:10;;;;;;;8.45;3.30;;;;;;;0.99;80.39;101554.47;5011198;28;20107;-65
2021/01/06 01:56:51;;;;;;;4.82;3.60;;;;;;;1.01;79.90;101555.25;5009713;28;20077;-65
2021/01/06 01:59:50;;;;;;;5.97;3.20;;;;;;;0.92;80.00;101547.84;5010942;28;20076;-65
2021/01/06 02:02:33;;;;;;;5.72;2.80;;;;;;;1.00;79.99;101545.66;5011049;28;20049;-65
2021/01/06 02:05:05;;;;;;;7.88;4.05;;;;;;;0.96;80.42;101539.72;5011044;28;20049;-65
2021/01/06 02:07:36;;;;;;;6.43;3.40;;;;;;;0.93;80.40;101536.38;5010414;28;20418;-65
2021/01/06 02:10:04;;;;;;;5.47;3.05;;;;;;;0.95;80.42;101539.78;5010108;28;20080;-65
2021/01/06 02:12:47;;;;;;;4.60;2.97;;;;;;;0.89;80.07;101540.97;5010971;28;20034;-65
2021/01/06 02:15:22;;;;;;;7.05;3.55;;;;;;;0.92;80.34;101539.97;5010064;28;20374;-65
2021/01/06 02:17:47;;;;;;;4.40;2.83;;;;;;;0.91;80.42;101532.97;5009786;28;20046;-65
2021/01/06 02:20:21;;;;;;;12.90;3.57;;;;;;;0.91;80.75;101528.56;5009697;28;20034;-65
2021/01/06 02:22:47;;;;;;;4.72;3.45;;;;;;;0.85;80.12;101526.28;5009695;28;20107;-65
2021/01/06 02:25:15;;;;;;;11.13;3.80;;;;;;;0.86;80.67;101524.50;5010703;28;20132;-65
2021/01/06 02:27:40;;;;;;;5.50;3.10;;;;;;;0.85;80.59;101521.03;4992964;28;20042;-65
2021/01/06 02:30:07;;;;;;;7.07;4.05;;;;;;;0.88;80.60;101522.63;5010800;28;20069;-65
2021/01/06 02:32:33;;;;;;;8.52;4.22;;;;;;;0.87;81.04;101521.78;5009824;28;20049;-65
2021/01/06 02:34:59;;;;;;;6.07;3.22;;;;;;;0.84;80.49;101519.31;5009755;28;20037;-65
2021/01/06 02:37:25;;;;;;;6.13;3.03;;;;;;;0.85;81.11;101518.41;5010393;28;20084;-65
2021/01/06 02:39:51;;;;;;;4.57;2.83;;;;;;;0.87;80.99;101513.91;5009833;28;20033;-65
2021/01/06 02:42:17;;;;;;;4.53;3.20;;;;;;;0.84;80.93;101517.56;5010781;28;20056;-65
2021/01/06 02:44:45;;;;;;;9.40;3.58;;;;;;;0.92;80.95;101509.25;5014332;28;20037;-65
2021/01/06 02:47:12;;;;;;;6.18;3.42;;;;;;;0.87;80.65;101506.03;5013564;28;20040;-65
2021/01/06 02:49:37;;;;;;;7.45;4.43;;;;;;;0.80;80.64;101500.22;5013041;28;20060;-65
2021/01/06 02:52:08;;;;;;;5.97;3.23;;;;;;;0.76;80.85;101501.31;5013218;28;20467;-65
2021/01/06 02:54:39;;;;;;;5.78;3.30;;;;;;;0.82;80.98;101500.16;5012965;28;20092;-65
2021/01/06 02:57:06;;;;;;;4.28;2.47;;;;;;;0.78;81.09;101496.00;5013602;28;20041;-65
2021/01/06 02:59:37;;;;;;;6.68;3.47;;;;;;;0.82;81.04;101495.75;4997594;28;20029;-65
2021/01/06 03:02:03;;;;;;;5.03;2.58;;;;;;;0.76;81.05;101489.97;5013701;28;20042;-65
2021/01/06 03:04:33;;;;;;;5.35;3.25;;;;;;;0.74;80.98;101484.78;5013841;28;20034;-65
2021/01/06 03:07:03;;;;;;;6.97;3.25;;;;;;;0.74;81.11;101474.25;5013375;28;20034;-65
2021/01/06 03:09:34;;;;;;;5.35;2.67;;;;;;;0.79;81.45;101476.66;5014008;28;20033;-65
2021/01/06 03:12:05;;;;;;;7.10;3.30;;;;;;;0.74;81.12;101469.00;5013877;28;20091;-71
2021/01/06 03:14:32;;;;;;;6.90;3.20;;;;;;;0.75;81.37;101470.72;5012959;28;20038;-65
2021/01/06 03:16:59;;;;;;;7.35;3.67;;;;;;;0.72;81.53;101462.97;5013265;28;20417;-65
2021/01/06 03:19:27;;;;;;;7.85;3.55;;;;;;;0.72;81.16;101464.75;5012697;28;20495;-65
2021/01/06 03:21:54;;;;;;;10.75;4.18;;;;;;;0.78;81.07;101457.41;5012348;28;20049;-65
2021/01/06 03:24:27;;;;;;;9.82;3.60;;;;;;;0.78;81.56;101465.28;5012448;28;20079;-65
2021/01/06 03:26:55;;;;;;;6.47;3.53;;;;;;;0.78;81.10;101459.19;5011953;28;20096;-65
2021/01/06 03:29:21;;;;;;;6.18;3.38;;;;;;;0.76;81.30;101455.78;5013353;28;20064;-65
2021/01/06 03:31:48;;;;;;;25.60;4.85;;;;;;;0.72;81.64;101456.88;5012304;28;20451;-65
2021/01/06 03:34:24;;;;;;;8.05;3.80;;;;;;;0.73;81.50;101450.72;5013242;28;20037;-65
2021/01/06 03:36:56;;;;;;;6.57;2.80;;;;;;;0.73;81.66;101445.44;5011912;28;20053;-65
2021/01/06 03:39:26;;;;;;;6.20;3.15;;;;;;;0.75;81.38;101439.19;5013063;28;20042;-65
2021/01/06 03:41:53;;;;;;;6.22;3.22;;;;;;;0.71;81.64;101437.63;5013389;28;20381;-65
2021/01/06 03:44:19;;;;;;;8.07;3.47;;;;;;;0.72;81.86;101434.06;5012067;28;20451;-65
2021/01/06 03:47:03;;;;;;;4.68;2.65;;;;;;;0.77;81.52;101445.22;5011838;28;20033;-65
2021/01/06 03:49:44;;;;;;;4.93;2.90;;;;;;;0.73;81.51;101429.69;5013073;28;20040;-65
2021/01/06 03:52:39;;;;;;;5.55;3.42;;;;;;;0.69;81.81;101433.41;5011904;28;20349;-65
2021/01/06 03:55:20;;;;;;;7.82;3.22;;;;;;;0.71;81.72;101429.75;5012319;28;20682;-65
2021/01/06 03:57:48;;;;;;;8.20;2.67;;;;;;;0.70;81.66;101435.06;5012405;28;20109;-65
2021/01/06 04:00:31;;;;;;;6.25;2.90;;;;;;;0.72;81.85;101426.19;5012617;28;20041;-65
2021/01/06 04:02:58;;;;;;;6.53;2.88;;;;;;;0.74;81.81;101421.69;5012593;28;20041;-65
2021/01/06 04:05:24;;;;;;;5.97;2.80;;;;;;;0.74;81.91;101426.94;5012541;28;20033;-65
2021/01/06 04:07:55;;;;;;;;;;;;;;;0.80;81.59;101420.53;5011389;28;20034;-65
2021/01/06 04:10:24;;;;;;;6.32;2.53;;;;;;;0.66;81.74;101418.63;5011655;28;20015;-65
2021/01/06 04:12:50;;;;;;;4.75;2.47;;;;;;;0.76;81.76;101414.56;5012439;28;20132;-65
2021/01/06 04:15:16;;;;;;;6.13;3.17;;;;;;;0.77;81.70;101411.03;4995332;28;20133;-65
2021/01/06 04:17:47;;;;;;;9.52;3.30;;;;;;;0.81;81.52;101412.53;5012302;28;20037;-65
2021/01/06 04:20:33;;;;;;;7.05;2.95;;;;;;;0.84;81.33;101409.75;5012551;28;20065;-65
2021/01/06 04:23:00;;;;;;;;;;;;;;;0.86;81.40;101414.06;5012730;28;20422;-65
2021/01/06 04:25:36;;;;;;;5.82;2.55;;;;;;;0.81;81.44;101402.03;5012194;28;19913;-65
2021/01/06 04:28:04;;;;;;;4.60;2.70;;;;;;;0.80;81.65;101410.84;5012164;28;20038;-65
2021/01/06 04:30:39;;;;;;;4.53;2.80;;;;;;;0.78;81.68;101411.88;5012319;28;20048;-65
2021/01/06 04:33:13;;;;;;;5.65;2.53;;;;;;;0.77;81.54;101397.00;5011381;28;20052;-65
2021/01/06 04:35:38;;;;;;;6.68;3.10;;;;;;;0.75;81.89;101396.25;5010923;28;20042;-65
2021/01/06 04:38:04;;;;;;;5.80;2.70;;;;;;;0.75;82.27;101397.13;4994824;28;20089;-65
2021/01/06 04:40:40;;;;;;;6.45;3.30;;;;;;;0.75;82.37;101391.00;5010989;28;20092;-65
2021/01/06 04:43:15;;;;;;;5.43;3.13;;;;;;;0.67;83.21;101394.03;5012104;28;20121;-65
2021/01/06 04:45:50;;;;;;;5.20;3.00;;;;;;;0.66;83.74;101387.09;5011588;28;20065;-66
2021/01/06 04:48:40;;;;;;;5.55;2.92;;;;;;;0.56;83.69;101385.88;5011884;28;20124;-66
2021/01/06 04:51:19;;;;;;;8.20;2.92;;;;;;;0.52;84.18;101384.38;5012008;28;20037;-66
2021/01/06 04:54:16;;;;;;;5.30;2.65;;;;;;;0.55;84.32;101384.19;5010933;28;20045;-66
2021/01/06 04:56:53;;;;;;;7.20;3.13;;;;;;;0.50;84.57;101375.72;5010607;28;20041;-66
2021/01/06 04:59:37;;;;;;;7.70;3.83;;;;;;;0.43;84.85;101375.19;5011066;28;20038;-66
2021/01/06 05:02:15;;;;;;;6.85;2.70;;;;;;;0.46;85.33;101379.44;5011650;28;20044;-66
2021/01/06 05:05:19;;;;;;;6.70;3.15;;;;;;;0.36;85.47;101376.44;5010175;28;20058;-67
2021/01/06 05:08:06;;;;;;;6.75;3.30;;;;;;;0.36;85.93;101369.41;5011025;28;20057;-67
2021/01/06 05:10:50;;;;;;;5.88;3.88;;;;;;;0.35;86.40;101364.22;5012078;28;20076;-67
2021/01/06 05:13:29;;;;;;;4.97;2.90;;;;;;;0.38;86.27;101370.19;4994338;28;20034;-67
2021/01/06 05:15:59;;;;;;;7.65;3.25;;;;;;;0.38;86.56;101367.56;5010713;28;20052;-71
2021/01/06 05:18:26;;;;;;;8.23;3.30;;;;;;;0.34;86.23;101363.38;5010661;28;20045;-71
2021/01/06 05:20:53;;;;;;;6.25;3.05;;;;;;;0.33;86.49;101358.25;5011783;28;20052;-71
2021/01/06 05:23:25;;;;;;;8.52;3.85;;;;;;;0.30;86.59;101359.22;5010749;28;20034;-71
2021/01/06 05:25:50;;;;;;;7.05;3.35;;;;;;;0.31;86.85;101355.69;5011457;28;20460;-71
2021/01/06 05:28:20;;;;;;;4.97;2.97;;;;;;;0.28;86.82;101350.59;5010530;28;20045;-72
2021/01/06 05:30:52;;;;;;;5.90;2.85;;;;;;;0.24;87.18;101345.59;5011573;28;20034;-71
2021/01/06 05:33:27;;;;;;;7.05;4.03;;;;;;;0.24;87.20;101346.44;4994164;28;20038;-72
2021/01/06 05:35:52;;;;;;;9.57;4.55;;;;;;;0.13;87.47;101333.84;5010257;28;20041;-72
2021/01/06 05:38:19;;;;;;;5.13;3.17;;;;;;;0.22;87.47;101334.31;5009717;28;20037;-72
2021/01/06 05:40:45;;;;;;;7.05;3.50;;;;;;;0.10;87.19;101330.56;5008772;28;20128;-72
2021/01/06 05:43:38;;;;;;;10.90;4.13;;;;;;;0.13;87.87;101330.38;5008616;28;20117;-72
2021/01/06 05:46:08;;;;;;;9.48;3.53;;;;;;;0.18;87.69;101323.94;5008813;28;20115;-72
2021/01/06 05:48:41;;;;;;;8.43;3.55;;;;;;;0.12;87.55;101323.47;5009393;28;20049;-72
2021/01/06 05:51:33;;;;;;;8.77;3.45;;;;;;;0.11;87.68;101321.75;5008751;28;20042;-72
2021/01/06 05:54:05;;;;;;;4.40;3.00;;;;;;;0.10;87.79;101320.06;5009638;28;20038;-72
2021/01/06 05:56:56;;;;;;;6.25;3.22;;;;;;;0.12;87.90;101326.09;5010043;28;20462;-72
2021/01/06 05:59:54;;;;;;;11.40;4.30;;;;;;;0.10;87.74;101317.44;5010413;28;20049;-72
2021/01/06 06:02:47;;;;;;;5.63;3.70;;;;;;;0.03;87.93;101314.28;5011265;28;20064;-72
2021/01/06 06:05:31;;;;;;;7.20;3.35;;;;;;;0.05;88.17;101322.94;5011088;28;20041;-68
2021/01/06 06:08:21;;;;;;;4.90;2.88;;;;;;;0.01;88.21;101315.28;5010992;28;20038;-68
2021/01/06 06:11:18;;;;;;;8.93;4.38;;;;;;;-0.11;88.42;101301.88;5010137;28;20498;-68
2021/01/06 06:14:31;;;;;;;8.10;3.72;;;;;;;-0.11;88.84;101315.00;5011030;28;20038;-67
2021/01/06 06:17:21;;;;;;;8.02;4.22;;;;;;;-0.14;88.92;101307.28;5010123;28;20459;-66
2021/01/06 06:20:24;;;;;;;6.25;3.97;;;;;;;-0.07;89.09;101307.78;4997399;28;20069;-66
2021/01/06 06:23:17;;;;;;;5.60;3.60;;;;;;;0.01;88.80;101310.03;5014813;28;20041;-66
2021/01/06 06:26:04;;;;;;;6.82;3.75;;;;;;;-0.13;88.87;101308.97;5014570;28;20044;-66
2021/01/06 06:28:44;;;;;;;5.20;3.17;;;;;;;-0.14;89.11;101303.78;5014552;28;20077;-66
2021/01/06 06:31:31;;;;;;;11.40;3.63;;;;;;;-0.12;89.11;101304.56;5013849;28;20042;-67
2021/01/06 06:33:59;;;;;;;7.22;3.83;;;;;;;-0.16;89.06;101303.91;5013763;28;20030;-67
2021/01/06 06:36:28;;;;;;;15.77;3.83;;;;;;;-0.22;89.52;101299.78;5014263;28;20076;-67
2021/01/06 06:38:56;;;;;;;9.23;4.22;;;;;;;-0.24;89.38;101295.56;5014456;28;20030;-67
2021/01/06 06:41:21;;;;;;;10.07;4.22;;;;;;;-0.19;89.57;101300.56;5013538;28;20467;-67
2021/01/06 06:44:07;;;;;;;8.83;3.93;;;;;;;-0.20;89.57;101296.25;4997024;28;20037;-67
2021/01/06 06:46:50;;;;;;;8.65;4.70;;;;;;;-0.15;89.72;101284.59;5014191;28;20447;-67
2021/01/06 06:49:44;;;;;;;10.02;4.07;;;;;;;-0.13;89.78;101287.97;5014250;28;20049;-67
2021/01/06 06:52:36;;;;;;;10.68;4.47;;;;;;;-0.22;89.93;101277.97;5013308;28;20390;-67
2021/01/06 06:55:23;;;;;;;9.90;4.32;;;;;;;-0.22;89.99;101277.97;5013239;28;20069;-68
2021/01/06 06:58:12;;;;;;;8.05;4.00;;;;;;;-0.32;90.08;101274.13;5012953;28;20499;-68
2021/01/06 07:00:37;;;;;;;11.32;4.15;;;;;;;-0.32;90.31;101277.59;5013987;28;20096;-68
2021/01/06 07:03:05;;;;;;;7.20;4.03;;;;;;;-0.35;90.29;101279.50;4996837;28;20049;-67
2021/01/06 07:05:46;;;;;;;10.50;4.10;;;;;;;-0.40;90.52;101268.41;5012676;28;20436;-67
2021/01/06 07:08:19;;;;;;;9.63;4.18;;;;;;;-0.36;90.49;101273.44;5013866;28;20104;-67
2021/01/06 07:10:54;;;;;;;9.13;4.03;;;;;;;-0.39;90.48;101268.34;5013899;28;20398;-68
2021/01/06 07:13:22;;;;;;;7.25;3.92;;;;;;;-0.35;90.76;101267.25;5012924;28;20467;-68
2021/01/06 07:15:54;;;;;;;8.38;4.03;;;;;;;-0.32;90.55;101271.50;5012517;28;20455;-68
2021/01/06 07:18:41;;;;;;;7.05;3.67;;;;;;;-0.37;90.80;101268.28;5012734;28;20034;-68
2021/01/06 07:21:06;;;;;;;6.88;3.55;;;;;;;-0.40;90.94;101268.41;5012831;28;20034;-68
2021/01/06 07:23:33;;;;;;;6.97;3.77;;;;;;;-0.37;91.09;101268.28;5013732;28;20045;-68
2021/01/06 07:26:09;;;;;;;8.27;3.65;;;;;;;-0.46;90.97;101264.34;5013269;28;20029;-68
2021/01/06 07:28:35;;;;;;;6.72;2.85;;;;;;;-0.32;91.08;101259.22;5012654;28;20083;-68
2021/01/06 07:31:16;;;;;;;7.25;4.00;;;;;;;-0.28;90.99;101268.63;5012648;28;20038;-68
2021/01/06 07:33:44;;;;;;;7.28;3.25;;;;;;;-0.26;90.87;101272.03;5013498;28;20037;-67
2021/01/06 07:36:20;;;;;;;9.77;3.67;;;;;;;-0.30;90.70;101260.00;5013240;28;20048;-68
2021/01/06 07:38:47;;;;;;;7.25;3.25;;;;;;;-0.36;90.87;101264.72;4995992;28;20026;-68
2021/01/06 07:41:13;;;;;;;11.07;3.40;;;;;;;-0.29;90.98;101269.56;5012341;28;20627;-68
2021/01/06 07:43:56;;;;;;;7.38;3.72;;;;;;;-0.27;90.92;101261.59;5012410;28;20029;-68
2021/01/06 07:46:23;;;;;;;5.50;3.33;;;;;;;-0.26;90.82;101260.66;4995713;28;20050;-68
2021/01/06 07:49:10;;;;;;;6.35;3.10;;;;;;;-0.25;90.76;101268.47;5013093;28;20125;-68
2021/01/06 07:52:04;;;;;;;7.97;3.17;;;;;;;-0.25;90.64;101263.22;5012170;28;20042;-68
2021/01/06 07:54:40;;;;;;;8.93;3.42;;;;;;;-0.08;91.19;101264.94;5013061;28;20038;-68
2021/01/06 07:57:12;;;;;;;8.10;3.03;;;;;;;-0.14;90.59;101265.31;5011774;28;20141;-68
2021/01/06 07:59:50;;;;;;;7.40;2.95;;;;;;;-0.25;90.52;101268.47;5012153;28;20065;-68
2021/01/06 08:02:26;;;;;;;10.70;2.65;;;;;;;-0.26;90.83;101258.91;5013058;28;20141;-68
2021/01/06 08:04:54;;;;;;;5.32;2.70;;;;;;;-0.25;90.79;101265.00;5011945;28;20104;-68
2021/01/06 08:07:21;;;;;;;8.05;3.67;;;;;;;-0.39;90.79;101257.00;5011559;28;20034;-68
2021/01/06 08:09:48;;;;;;;5.70;2.47;;;;;;;-0.36;90.82;101254.22;5012474;28;20052;-68
2021/01/06 08:12:31;;;;;;;5.47;2.70;;;;;;;-0.44;91.11;101252.84;5012640;28;20040;-68
2021/01/06 08:15:07;;;;;;;4.90;2.65;;;;;;;-0.41;91.12;101248.38;5012757;28;20038;-68
2021/01/06 08:17:46;;;;;;;6.22;2.78;;;;;;;-0.38;90.92;101253.44;5011490;28;20033;-68
2021/01/06 08:20:20;;;;;;;4.43;2.55;;;;;;;-0.38;90.84;101248.19;5012690;28;20468;-68
2021/01/06 08:23:03;;;;;;;6.03;2.22;;;;;;;-0.35;91.00;101245.41;5012495;28;20051;-68
2021/01/06 08:25:33;;;;;;;6.45;2.70;;;;;;;-0.36;90.75;101241.94;4995001;28;20115;-68
2021/01/06 08:27:58;;;;;;;4.85;2.42;;;;;;;-0.46;91.03;101238.13;5012471;28;20030;-68
2021/01/06 08:30:26;;;;;;;7.68;3.10;;;;;;;-0.43;90.97;101241.41;5012482;28;20049;-68
2021/01/06 08:33:07;;;;;;;7.65;3.67;;;;;;;-0.41;91.05;101245.75;5012111;28;20367;-68
2021/01/06 08:35:40;;;;;;;4.05;2.53;;;;;;;-0.43;91.16;101228.28;5012160;28;20404;-68
2021/01/06 08:38:31;;;;;;;8.98;2.95;;;;;;;-0.54;91.21;101227.16;5012252;28;20513;-68
2021/01/06 08:41:19;;;;;;;6.38;3.05;;;;;;;-0.43;91.16;101232.69;4994832;28;20532;-68
2021/01/06 08:43:46;;;;;;;6.47;2.50;;;;;;;-0.46;91.17;101228.47;5012191;28;20091;-68
2021/01/06 08:46:32;;;;;;;6.25;2.80;;;;;;;-0.45;91.22;101224.91;5011068;28;20038;-68
2021/01/06 08:49:25;;;;;;;6.80;3.03;;;;;;;-0.44;91.27;101221.34;5011073;28;20637;-68
2021/01/06 08:51:54;;;;;;;4.97;2.20;;;;;;;-0.40;91.48;101226.44;5011040;28;20061;-68
2021/01/06 08:54:32;;;;;;;6.40;2.90;;;;;;;-0.37;91.25;101221.06;5012454;28;20037;-69
2021/01/06 08:57:07;;;;;;;5.53;2.70;;;;;;;-0.35;91.09;101225.28;5011532;28;20045;-68
2021/01/06 08:59:37;;;;;;;3.70;2.00;;;;;;;-0.43;91.47;101204.69;5010982;28;20029;-68
2021/01/06 09:02:14;;;;;;;3.70;2.03;;;;;;;-0.40;91.36;101222.03;5011901;28;20038;-69
2021/01/06 09:04:43;;;;;;;3.38;1.75;;;;;;;-0.35;91.17;101213.91;4994532;28;20092;-69
2021/01/06 09:07:14;;;;;;;5.10;2.15;;;;;;;-0.32;90.98;101211.16;5011389;28;20026;-69
2021/01/06 09:10:05;;;;;;;4.60;2.25;;;;;;;-0.35;91.09;101201.69;5011950;28;20115;-69
2021/01/06 09:12:55;;;;;;;4.35;2.15;;;;;;;-0.39;91.20;101205.38;4994412;28;20069;-69
2021/01/06 09:15:29;;;;;;;3.95;1.73;;;;;;;-0.40;90.86;101205.44;4994381;28;20041;-69
2021/01/06 09:18:09;;;;;;;5.97;2.08;;;;;;;-0.39;91.05;101204.53;5010534;28;20168;-69
2021/01/06 09:21:04;;;;;;;7.82;1.88;;;;;;;-0.48;91.08;101192.75;5011752;28;20030;-69
2021/01/06 09:23:30;;;;;;;;;;;;;;;-0.43;91.26;101186.31;5011994;28;20061;-69
2021/01/06 09:25:58;;;;;;;5.75;2.92;;;;;;;-0.41;91.29;101183.63;5026866;28;19959;-69
2021/01/06 09:28:25;;;;;;;4.70;2.20;;;;;;;-0.46;91.34;101183.88;5011448;28;20042;-69
2021/01/06 09:30:52;;;;;;;5.05;2.80;;;;;;;-0.40;91.37;101177.44;5010548;28;20037;-69
2021/01/06 09:33:25;;;;;;;3.55;1.40;;;;;;;-0.40;91.48;101177.44;5011511;28;20444;-69
2021/01/06 09:35:51;;;;;;;5.22;2.40;;;;;;;-0.46;91.56;101175.16;5010350;28;20037;-69
2021/01/06 09:38:26;;;;;;;3.42;2.17;;;;;;;-0.52;91.38;101176.31;5010456;28;20104;-69
2021/01/06 09:40:55;;;;;;;3.25;1.85;;;;;;;-0.49;91.28;101170.91;5011460;28;20133;-69
2021/01/06 09:43:28;;;;;;;3.00;1.92;;;;;;;-0.44;91.53;101171.53;5010566;28;20073;-69
2021/01/06 09:45:53;;;;;;;4.07;2.25;;;;;;;-0.47;91.46;101165.56;5011178;28;20040;-68
2021/01/06 09:48:19;;;;;;;3.83;1.80;;;;;;;-0.36;91.57;101167.63;4993939;28;20375;-69
2021/01/06 09:50:50;;;;;;;6.00;1.98;;;;;;;-0.34;91.35;101160.53;5010451;28;20034;-69
2021/01/06 09:53:18;;;;;;;4.90;1.70;;;;;;;-0.37;91.29;101155.47;5013954;28;20052;-69
2021/01/06 09:55:47;;;;;;;4.30;2.20;;;;;;;-0.43;91.18;101151.38;5014060;28;20068;-69
2021/01/06 09:58:32;;;;;;;5.20;2.20;;;;;;;-0.36;91.24;101157.97;5015106;28;20040;-69
2021/01/06 10:01:16;;;;;;;4.22;2.05;;;;;;;-0.37;91.24;101152.84;5014283;28;20112;-69
2021/01/06 10:03:44;;;;;;;7.05;1.90;;;;;;;-0.34;91.32;101153.50;5015174;28;20045;-69
2021/01/06 10:06:36;;;;;;;3.83;1.70;;;;;;;-0.26;91.39;101143.47;5013961;28;20116;-69
2021/01/06 10:09:10;;;;;;;5.78;2.55;;;;;;;-0.36;91.34;101146.66;5014013;28;20045;-69
2021/01/06 10:12:06;;;;;;;4.32;2.10;;;;;;;-0.28;91.57;101144.44;4997825;28;20052;-69
2021/01/06 10:14:51;;;;;;;7.80;1.70;;;;;;;-0.23;91.25;101145.06;5013982;28;20116;-69
2021/01/06 10:17:23;;;;;;;5.25;1.98;;;;;;;-0.23;91.26;101145.91;5013666;28;20072;-69
2021/01/06 10:20:10;;;;;;;3.55;1.98;;;;;;;-0.34;91.07;101142.16;5014040;28;20041;-69
2021/01/06 10:22:45;;;;;;;5.47;2.35;;;;;;;-0.25;90.98;101136.44;5013629;28;20490;-68
2021/01/06 10:25:28;;;;;;;3.92;1.67;;;;;;;-0.26;91.31;101132.09;5013627;28;20053;-69
2021/01/06 10:28:02;;;;;;;4.60;2.00;;;;;;;-0.20;90.94;101134.38;5014413;28;20034;-69
2021/01/06 10:30:30;;;;;;;5.68;2.13;;;;;;;-0.39;91.19;101129.28;5014657;28;20105;-69
2021/01/06 10:33:14;;;;;;;8.85;1.70;;;;;;;-0.26;91.33;101127.72;5013634;28;20048;-69
2021/01/06 10:35:54;;;;;;;4.50;1.70;;;;;;;-0.18;91.19;101127.28;5014330;28;20131;-69
2021/01/06 10:38:23;;;;;;;3.40;2.38;;;;;;;-0.18;90.96;101116.78;5014442;28;20044;-69
2021/01/06 10:40:51;;;;;;;4.68;1.80;;;;;;;-0.16;90.97;101119.34;5014394;28;20045;-69
2021/01/06 10:43:32;;;;;;;5.07;2.30;;;;;;;-0.16;90.97;101109.69;5013471;28;20053;-68
2021/01/06 10:45:57;;;;;;;7.38;1.98;;;;;;;-0.27;90.95;101112.03;5012750;28;20084;-69
2021/01/06 10:48:44;;;;;;;4.63;1.87;;;;;;;-0.18;91.32;101100.19;5013939;28;20026;-69
2021/01/06 10:51:10;;;;;;;4.32;1.80;;;;;;;-0.13;91.32;101104.25;5014187;28;20030;-69
2021/01/06 10:53:40;;;;;;;5.75;1.85;;;;;;;-0.12;91.16;101094.59;5011061;28;20629;-68
2021/01/06 10:56:09;;;;;;;6.65;1.50;;;;;;;-0.14;91.24;101086.81;5012683;28;20164;-68
2021/01/06 10:58:58;;;;;;;7.85;2.72;;;;;;;-0.11;90.88;101086.66;5013990;28;20026;-68
2021/01/06 11:01:26;;;;;;;5.43;2.13;;;;;;;-0.01;91.03;101087.81;5013844;28;20038;-68
2021/01/06 11:04:13;;;;;;;1.88;1.52;;;;;;;-0.03;91.02;101083.59;5011463;28;20133;-68
2021/01/06 11:06:44;;;;;;;5.05;1.85;;;;;;;0.03;91.04;101079.78;5012844;28;20073;-68
2021/01/06 11:09:18;;;;;;;6.90;1.80;;;;;;;0.08;91.08;101085.63;5013809;28;20835;-67
2021/01/06 11:12:00;;;;;;;3.80;1.48;;;;;;;-0.01;90.82;101077.31;5013750;28;20112;-68
2021/01/06 11:14:47;;;;;;;4.53;1.58;;;;;;;-0.06;90.95;101076.72;5012956;28;20116;-68
2021/01/06 11:17:18;;;;;;;2.28;1.27;;;;;;;0.06;90.68;101072.56;5013523;28;20100;-67
2021/01/06 11:20:18;;;;;;;3.45;1.25;;;;;;;-0.04;90.58;101061.75;5012680;28;20038;-68
2021/01/06 11:22:45;;;;;;;5.22;2.58;;;;;;;0.02;90.95;101057.06;5013744;28;20030;-68
2021/01/06 11:25:14;;;;;;;2.92;1.38;;;;;;;0.00;90.90;101054.56;5013553;28;20429;-68
2021/01/06 11:27:58;;;;;;;6.00;1.48;;;;;;;-0.02;90.85;101044.13;5012214;28;20053;-68
2021/01/06 11:30:30;;;;;;;3.20;1.60;;;;;;;-0.08;90.92;101041.84;5013302;28;20416;-67
2021/01/06 11:33:13;;;;;;;2.97;1.60;;;;;;;-0.11;91.18;101039.41;5013507;28;20046;-67
2021/01/06 11:35:52;;;;;;;4.38;1.58;;;;;;;-0.10;90.91;101035.00;5013125;28;20064;-67
2021/01/06 11:38:41;;;;;;;7.05;1.50;;;;;;;-0.03;91.26;101034.53;5012393;28;20369;-67
2021/01/06 11:41:25;;;;;;;2.15;1.35;;;;;;;-0.16;91.43;101024.84;4995590;28;20089;-67
2021/01/06 11:43:59;;;;;;;10.07;1.67;;;;;;;-0.07;91.40;101033.06;4993733;28;20460;-67
2021/01/06 11:46:46;;;;;;;5.63;1.48;;;;;;;-0.02;91.26;101024.91;4993375;28;20104;-67
2021/01/06 11:49:11;;;;;;;3.17;1.90;;;;;;;0.05;91.41;101020.13;4992645;28;20077;-67
2021/01/06 11:51:38;;;;;;;4.93;2.47;;;;;;;-0.02;91.46;101011.78;4992641;28;20125;-67
2021/01/06 11:54:03;;;;;;;4.65;1.95;;;;;;;0.00;91.19;101020.44;4994135;28;20033;-67
2021/01/06 11:56:38;;;;;;;3.13;1.60;;;;;;;0.03;91.37;101004.50;5007395;28;20045;-67
2021/01/06 11:59:32;;;;;;;8.45;2.13;;;;;;;0.05;90.81;101004.38;5006655;28;20030;-67
2021/01/06 12:02:11;;;;;;;2.47;1.48;;;;;;;0.08;91.10;101006.84;5000762;28;20049;-67